Nearby METAR Reports

 

KAGC - Pittsburgh/Alleg, Pennsylvania, USA
Distance from station: N 14mi, 23km
Updated: Mon, Jun-01-2020 11:53pm EDT
Clear
Clear
 Wind from SSW
Wind: SSW 6 mph , 9 km/h
Temperature: 61°F , 16°C
Dew Point: 37°F , 3°C
Humidity: 42%
Barometer: 30.16 inHg , 1021.3 hPa
Clouds: Clear
Visibility: 10 miles , 16 km
2020/06/02 03:53 KAGC 020353Z 21005KT 10SM CLR 16/03 A3016 RMK AO2 SLP214 T01610033
KAFJ - Washington, Pennsylvania, USA
Distance from station: W 17mi, 28km
Updated: Mon, Jun-01-2020 11:56pm EDT
Clear
Clear
 Wind from calm
Wind: Calm
Temperature: 52°F , 11°C
Dew Point: 48°F , 9°C
Humidity: 88%
Barometer: 30.20 inHg , 1022.7 hPa
Clouds: Clear
Visibility: 10 miles , 16 km
2020/06/02 03:56 KAFJ 020356Z AUTO 00000KT 10SM CLR 11/09 A3020 RMK AO2 SLP225 T01110089
 
KLBE - Latrobe, Pennsylvania, USA
Distance from station: ENE 30mi, 48km
Updated: Mon, Jun-01-2020 11:55pm EDT
Clear
Clear
 Wind from calm
Wind: Calm
Temperature: 54°F , 12°C
Dew Point: 43°F , 6°C
Humidity: 67%
Barometer: 30.17 inHg , 1021.7 hPa
Clouds: Clear
Visibility: 10 miles , 16 km
2020/06/02 03:55 KLBE 020355Z AUTO 00000KT 10SM CLR 12/06 A3017 RMK AO2
KPIT - Pittsburgh, Pennsylvania, USA
Distance from station: NW 30mi, 48km
Updated: Mon, Jun-01-2020 11:51pm EDT
Overcast
Overcast
 Wind from calm
Wind: Calm
Temperature: 57°F , 14°C
Dew Point: 41°F , 5°C
Humidity: 55%
Barometer: 30.16 inHg , 1021.3 hPa
Clouds: Overcast
Visibility: 10 miles , 16 km
Cloud details: Few Clouds 10000 ft
Overcast 13000 ft
2020/06/02 03:51 KPIT 020351Z 00000KT 10SM FEW100 OVC130 14/05 A3016 RMK AO2 SLP216 T01440050
 
KMGW - Morgantown, West Virginia, USA
Distance from station: S 34mi, 55km
Updated: Mon, Jun-01-2020 11:53pm EDT
Clear
Clear
 Wind from calm
Wind: Calm
Temperature: 54°F , 12°C
Dew Point: 43°F , 6°C
Humidity: 67%
Barometer: 30.19 inHg , 1022.4 hPa
Clouds: Clear
Visibility: 10 miles , 16 km
2020/06/02 03:53 KMGW 020353Z AUTO 00000KT 10SM CLR 12/06 A3019 RMK AO2 SLP223 T01170061
KHLG - Wheeling, West Virginia, USA
Distance from station: W 37mi, 60km
Updated: Mon, Jun-01-2020 11:53pm EDT
Clear
Clear
 Wind from S
Wind: S 6 mph , 9 km/h
Temperature: 61°F , 16°C
Dew Point: 39°F , 4°C
Humidity: 45%
Barometer: 30.17 inHg , 1021.7 hPa
Clouds: Clear
Visibility: 10 miles , 16 km
2020/06/02 03:53 KHLG 020353Z AUTO 17005KT 10SM CLR 16/04 A3017 RMK AO2 SLP215 T01560044
 
KBTP - Butler Co., Pennsylvania, USA
Distance from station: N 43mi, 69km
Updated: Mon, Jun-01-2020 11:56pm EDT
Few Clouds
Few Clouds
 Wind from calm
Wind: Calm
Temperature: 55°F , 13°C
Dew Point: 43°F , 6°C
Humidity: 63%
Barometer: 30.16 inHg , 1021.3 hPa
Clouds: Few Clouds
Visibility: 10 miles , 16 km
Cloud details: Few Clouds 11000 ft
2020/06/02 03:56 KBTP 020356Z AUTO 00000KT 10SM FEW110 13/06 A3016 RMK AO2 SLP219 T01280056
KBVI - Beaver Falls Arp, Pennsylvania, USA
Distance from station: NNW 49mi, 79km
Updated: Mon, Jun-01-2020 11:55pm EDT
Overcast
Overcast
 Wind from S
Wind: S 5 mph , 7 km/h
Temperature: 61°F , 16°C
Dew Point: 39°F , 4°C
Humidity: 45%
Barometer: 30.16 inHg , 1021.3 hPa
Clouds: Overcast
Visibility: 10 miles , 16 km
Cloud details: Overcast 10000 ft
2020/06/02 03:55 KBVI 020355Z AUTO 17004KT 10SM OVC100 16/04 A3016 RMK AO2 T01600036
 
K2G4 - Garrett Co, Maryland, USA
Distance from station: SE 51mi, 82km
Updated: Thu, May-14-2020 5:30pm EDT
NOT Current
Partly cloudy
Partly cloudy
 Wind from WSW
Wind: WSW 10 mph , 17 km/h, Gust: 21 mph , 33 km/h
Temperature: 66°F , 19°C
Dew Point: 52°F , 11°C
Humidity: 60%
Barometer: 30.14 inHg , 1020.7 hPa
Clouds: Partly cloudy
Visibility: 10 miles , 16 km
Cloud details: Partly cloudy 2900 ft
Partly cloudy 3400 ft
Partly cloudy 4000 ft
2020/05/14 21:30 K2G4 142130Z AUTO 24009G18KT 10SM SCT029 SCT034 SCT040 19/11 A3014 RMK AO1
KIDI - Indiana/Stewart, Pennsylvania, USA
Distance from station: NE 56mi, 90km
Updated: Mon, Jun-01-2020 11:55pm EDT
Clear
Clear
 Wind from calm
Wind: Calm
Temperature: 50°F , 10°C
Dew Point: 45°F , 7°C
Humidity: 82%
Barometer: 30.20 inHg , 1022.7 hPa
Clouds: Clear
Visibility: 10 miles , 16 km
2020/06/02 03:55 KIDI 020355Z AUTO 00000KT 10SM CLR 10/07 A3020 RMK A01
 
KJST - Johnstown, Pennsylvania, USA
Distance from station: ENE 60mi, 96km
Updated: Mon, Jun-01-2020 11:54pm EDT
Clear
Clear
 Wind from SSW
Wind: SSW 6 mph , 9 km/h
Temperature: 55°F , 13°C
Dew Point: 34°F , 1°C
Humidity: 44%
Barometer: 30.18 inHg , 1022 hPa
Clouds: Clear
Visibility: 10 miles , 16 km
2020/06/02 03:54 KJST 020354Z AUTO 21005KT 10SM CLR 13/01 A3018 RMK AO2 SLP218 T01280011
KCBE - Cumberland Reg, Maryland, USA
Distance from station: ESE 72mi, 116km
Updated: Mon, Jun-01-2020 11:55pm EDT
Clear
Clear
 Wind from calm
Wind: Calm
Temperature: 50°F , 10°C
Dew Point: 43°F , 6°C
Humidity: 76%
Barometer: 30.23 inHg , 1023.7 hPa
Clouds: Clear
Visibility: 10 miles , 16 km
2020/06/02 03:55 KCBE 020355Z AUTO 00000KT 10SM CLR 10/06 A3023 RMK AO2 T01040059
 
KILG - Wilmington, Delaware, USA
Distance from station: ESE 234mi, 377km
Updated: Mon, Jun-01-2020 11:51pm EDT
Clear
Clear
 Wind from WSW
Wind: WSW 9 mph , 15 km/h
Temperature: 61°F , 16°C
Dew Point: 46°F , 8°C
Humidity: 59%
Barometer: 30.15 inHg , 1021 hPa
Clouds: Clear
Visibility: 10 miles , 16 km
2020/06/02 03:51 KILG 020351Z 24008KT 10SM CLR 16/08 A3015 RMK AO2 SLP208 T01560083
KTUS - Tucson, Arizona, USA
Distance from station: WSW 1806mi, 3283km
Updated: Mon, Jun-01-2020 11:53pm EDT
Clear
Clear
 Wind from S
Wind: S 8 mph , 13 km/h
Temperature: 84°F , 29°C
Dew Point: 46°F , 8°C
Humidity: 27%
Barometer: 29.99 inHg , 1015.6 hPa
Clouds: Clear
Visibility: 10 miles , 16 km
2020/06/02 03:53 KTUS 020353Z 18007KT 10SM CLR 29/08 A2999 RMK AO2 SLP104 T02890083 $